sensor_id;sensor_type;location;lat;lon;timestamp;pressure;altitude;pressure_sealevel;temperature;humidity
34931;BME280;21134;49.646;8.560;2023-07-20T00:01:29;100247.56;;;20.63;57.09
34931;BME280;21134;49.646;8.560;2023-07-20T00:03:56;100246.31;;;20.53;57.50
34931;BME280;21134;49.646;8.560;2023-07-20T00:06:23;100257.88;;;20.46;57.62
34931;BME280;21134;49.646;8.560;2023-07-20T00:08:50;100251.81;;;20.45;57.79
34931;BME280;21134;49.646;8.560;2023-07-20T00:11:17;100249.00;;;20.31;58.28
34931;BME280;21134;49.646;8.560;2023-07-20T00:13:43;100242.97;;;20.30;58.06
34931;BME280;21134;49.646;8.560;2023-07-20T00:16:09;100252.72;;;20.25;58.16
34931;BME280;21134;49.646;8.560;2023-07-20T00:18:37;100249.38;;;20.23;58.29
34931;BME280;21134;49.646;8.560;2023-07-20T00:21:04;100258.97;;;20.21;58.37
34931;BME280;21134;49.646;8.560;2023-07-20T00:23:30;100254.03;;;20.15;58.55
34931;BME280;21134;49.646;8.560;2023-07-20T00:25:56;100251.59;;;20.12;58.66
34931;BME280;21134;49.646;8.560;2023-07-20T00:28:23;100253.47;;;20.08;58.98
34931;BME280;21134;49.646;8.560;2023-07-20T00:30:49;100253.53;;;20.07;59.39
34931;BME280;21134;49.646;8.560;2023-07-20T00:33:17;100258.72;;;20.07;59.31
34931;BME280;21134;49.646;8.560;2023-07-20T00:35:45;100250.34;;;20.00;59.50
34931;BME280;21134;49.646;8.560;2023-07-20T00:38:11;100256.34;;;20.02;59.62
34931;BME280;21134;49.646;8.560;2023-07-20T00:40:39;100256.59;;;19.96;60.01
34931;BME280;21134;49.646;8.560;2023-07-20T00:43:06;100252.34;;;19.95;60.45
34931;BME280;21134;49.646;8.560;2023-07-20T00:45:33;100256.03;;;19.89;60.58
34931;BME280;21134;49.646;8.560;2023-07-20T00:48:01;100251.09;;;19.83;60.50
34931;BME280;21134;49.646;8.560;2023-07-20T00:50:28;100257.25;;;19.81;60.35
34931;BME280;21134;49.646;8.560;2023-07-20T00:52:56;100261.97;;;19.72;60.44
34931;BME280;21134;49.646;8.560;2023-07-20T00:55:23;100265.03;;;19.60;60.39
34931;BME280;21134;49.646;8.560;2023-07-20T00:57:51;100269.81;;;19.49;60.43
34931;BME280;21134;49.646;8.560;2023-07-20T01:00:17;100270.06;;;19.43;60.60
34931;BME280;21134;49.646;8.560;2023-07-20T01:02:44;100273.78;;;19.37;60.71
34931;BME280;21134;49.646;8.560;2023-07-20T01:05:11;100264.41;;;19.33;60.78
34931;BME280;21134;49.646;8.560;2023-07-20T01:07:41;100262.94;;;19.27;60.73
34931;BME280;21134;49.646;8.560;2023-07-20T01:10:13;100263.81;;;19.26;61.07
34931;BME280;21134;49.646;8.560;2023-07-20T01:12:46;100255.41;;;19.21;61.46
34931;BME280;21134;49.646;8.560;2023-07-20T01:15:13;100254.69;;;19.18;61.11
34931;BME280;21134;49.646;8.560;2023-07-20T01:17:40;100258.16;;;19.17;61.83
34931;BME280;21134;49.646;8.560;2023-07-20T01:20:07;100258.34;;;19.12;61.85
34931;BME280;21134;49.646;8.560;2023-07-20T01:22:53;100260.03;;;19.13;62.28
34931;BME280;21134;49.646;8.560;2023-07-20T01:25:34;100260.53;;;19.01;62.48
34931;BME280;21134;49.646;8.560;2023-07-20T01:28:32;100258.28;;;18.92;63.01
34931;BME280;21134;49.646;8.560;2023-07-20T01:31:14;100264.50;;;18.88;63.10
34931;BME280;21134;49.646;8.560;2023-07-20T01:33:42;100255.22;;;18.82;63.27
34931;BME280;21134;49.646;8.560;2023-07-20T01:36:09;100255.69;;;18.70;63.21
34931;BME280;21134;49.646;8.560;2023-07-20T01:38:37;100266.94;;;18.69;63.54
34931;BME280;21134;49.646;8.560;2023-07-20T01:41:03;100256.91;;;18.59;63.66
34931;BME280;21134;49.646;8.560;2023-07-20T01:43:32;100263.31;;;18.51;63.94
34931;BME280;21134;49.646;8.560;2023-07-20T01:45:59;100263.44;;;18.46;63.89
34931;BME280;21134;49.646;8.560;2023-07-20T01:48:26;100263.34;;;18.49;63.98
34931;BME280;21134;49.646;8.560;2023-07-20T01:50:53;100265.09;;;18.49;63.92
34931;BME280;21134;49.646;8.560;2023-07-20T01:53:19;100266.25;;;18.40;64.24
34931;BME280;21134;49.646;8.560;2023-07-20T01:55:46;100261.41;;;18.31;64.57
34931;BME280;21134;49.646;8.560;2023-07-20T01:58:12;100261.41;;;18.31;64.40
34931;BME280;21134;49.646;8.560;2023-07-20T02:00:39;100258.09;;;18.27;64.75
34931;BME280;21134;49.646;8.560;2023-07-20T02:03:05;100254.09;;;18.19;64.94
34931;BME280;21134;49.646;8.560;2023-07-20T02:05:34;100262.94;;;18.13;65.13
34931;BME280;21134;49.646;8.560;2023-07-20T02:08:00;100260.38;;;18.13;65.33
34931;BME280;21134;49.646;8.560;2023-07-20T02:10:26;100259.66;;;18.08;65.33
34931;BME280;21134;49.646;8.560;2023-07-20T02:12:53;100261.59;;;18.03;65.70
34931;BME280;21134;49.646;8.560;2023-07-20T02:15:20;100262.66;;;17.97;65.64
34931;BME280;21134;49.646;8.560;2023-07-20T02:17:46;100268.88;;;17.92;65.90
34931;BME280;21134;49.646;8.560;2023-07-20T02:20:12;100256.03;;;17.88;66.29
34931;BME280;21134;49.646;8.560;2023-07-20T02:22:40;100260.38;;;17.88;66.49
34931;BME280;21134;49.646;8.560;2023-07-20T02:25:08;100260.59;;;17.82;66.42
34931;BME280;21134;49.646;8.560;2023-07-20T02:27:34;100254.63;;;17.80;66.50
34931;BME280;21134;49.646;8.560;2023-07-20T02:30:01;100265.13;;;17.74;66.77
34931;BME280;21134;49.646;8.560;2023-07-20T02:32:28;100261.69;;;17.75;66.49
34931;BME280;21134;49.646;8.560;2023-07-20T02:34:55;100260.03;;;17.72;66.88
34931;BME280;21134;49.646;8.560;2023-07-20T02:37:21;100258.28;;;17.73;66.95
34931;BME280;21134;49.646;8.560;2023-07-20T02:39:49;100268.00;;;17.66;67.42
34931;BME280;21134;49.646;8.560;2023-07-20T02:42:16;100269.00;;;17.62;67.83
34931;BME280;21134;49.646;8.560;2023-07-20T02:44:42;100274.38;;;17.56;67.65
34931;BME280;21134;49.646;8.560;2023-07-20T02:47:09;100269.31;;;17.53;68.08
34931;BME280;21134;49.646;8.560;2023-07-20T02:49:35;100268.41;;;17.54;67.87
34931;BME280;21134;49.646;8.560;2023-07-20T02:52:02;100270.22;;;17.52;68.18
34931;BME280;21134;49.646;8.560;2023-07-20T02:54:28;100273.78;;;17.48;68.11
34931;BME280;21134;49.646;8.560;2023-07-20T02:56:57;100269.63;;;17.43;68.16
34931;BME280;21134;49.646;8.560;2023-07-20T02:59:23;100272.19;;;17.43;67.87
34931;BME280;21134;49.646;8.560;2023-07-20T03:01:49;100269.88;;;17.36;68.23
34931;BME280;21134;49.646;8.560;2023-07-20T03:04:16;100276.72;;;17.37;68.32
34931;BME280;21134;49.646;8.560;2023-07-20T03:06:42;100280.25;;;17.34;68.35
34931;BME280;21134;49.646;8.560;2023-07-20T03:09:09;100269.09;;;17.32;68.37
34931;BME280;21134;49.646;8.560;2023-07-20T03:11:35;100269.25;;;17.28;68.72
34931;BME280;21134;49.646;8.560;2023-07-20T03:14:03;100265.88;;;17.26;68.97
34931;BME280;21134;49.646;8.560;2023-07-20T03:16:30;100265.03;;;17.25;69.06
34931;BME280;21134;49.646;8.560;2023-07-20T03:18:58;100267.78;;;17.20;69.60
34931;BME280;21134;49.646;8.560;2023-07-20T03:21:24;100273.97;;;17.15;69.71
34931;BME280;21134;49.646;8.560;2023-07-20T03:23:50;100271.56;;;17.10;70.54
34931;BME280;21134;49.646;8.560;2023-07-20T03:26:17;100275.06;;;17.08;70.47
34931;BME280;21134;49.646;8.560;2023-07-20T03:28:43;100275.25;;;17.02;70.57
34931;BME280;21134;49.646;8.560;2023-07-20T03:31:11;100272.72;;;17.00;70.74
34931;BME280;21134;49.646;8.560;2023-07-20T03:33:37;100274.53;;;16.96;70.38
34931;BME280;21134;49.646;8.560;2023-07-20T03:36:04;100278.41;;;16.83;70.86
34931;BME280;21134;49.646;8.560;2023-07-20T03:38:31;100279.41;;;16.79;71.33
34931;BME280;21134;49.646;8.560;2023-07-20T03:40:59;100282.00;;;16.78;71.15
34931;BME280;21134;49.646;8.560;2023-07-20T03:43:27;100284.59;;;16.78;71.22
34931;BME280;21134;49.646;8.560;2023-07-20T03:45:54;100291.56;;;16.76;71.47
34931;BME280;21134;49.646;8.560;2023-07-20T03:48:23;100288.31;;;16.67;72.17
34931;BME280;21134;49.646;8.560;2023-07-20T03:50:51;100295.34;;;16.62;72.36
34931;BME280;21134;49.646;8.560;2023-07-20T03:53:18;100294.56;;;16.60;72.19
34931;BME280;21134;49.646;8.560;2023-07-20T03:55:45;100287.72;;;16.59;72.73
34931;BME280;21134;49.646;8.560;2023-07-20T03:58:12;100293.75;;;16.58;72.41
34931;BME280;21134;49.646;8.560;2023-07-20T04:00:39;100284.31;;;16.57;72.77
34931;BME280;21134;49.646;8.560;2023-07-20T04:03:06;100296.31;;;16.60;72.14
34931;BME280;21134;49.646;8.560;2023-07-20T04:05:34;100294.81;;;16.51;72.99
34931;BME280;21134;49.646;8.560;2023-07-20T04:08:00;100294.84;;;16.49;72.98
34931;BME280;21134;49.646;8.560;2023-07-20T04:10:26;100294.00;;;16.49;72.79
34931;BME280;21134;49.646;8.560;2023-07-20T04:12:53;100300.00;;;16.51;72.97
34931;BME280;21134;49.646;8.560;2023-07-20T04:15:19;100303.31;;;16.55;72.21
34931;BME280;21134;49.646;8.560;2023-07-20T04:17:46;100309.41;;;16.54;73.31
34931;BME280;21134;49.646;8.560;2023-07-20T04:20:12;100300.75;;;16.55;73.16
34931;BME280;21134;49.646;8.560;2023-07-20T04:22:40;100300.72;;;16.56;74.10
34931;BME280;21134;49.646;8.560;2023-07-20T04:25:07;100299.72;;;16.60;73.97
34931;BME280;21134;49.646;8.560;2023-07-20T04:27:35;100302.13;;;16.66;73.15
34931;BME280;21134;49.646;8.560;2023-07-20T04:30:01;100312.47;;;16.66;73.72
34931;BME280;21134;49.646;8.560;2023-07-20T04:32:29;100313.13;;;16.73;73.17
34931;BME280;21134;49.646;8.560;2023-07-20T04:34:55;100313.13;;;16.73;72.95
34931;BME280;21134;49.646;8.560;2023-07-20T04:37:22;100316.41;;;16.80;72.87
34931;BME280;21134;49.646;8.560;2023-07-20T04:39:49;100314.25;;;16.94;71.94
34931;BME280;21134;49.646;8.560;2023-07-20T04:42:16;100307.94;;;17.04;71.92
34931;BME280;21134;49.646;8.560;2023-07-20T04:44:42;100314.50;;;17.14;72.00
34931;BME280;21134;49.646;8.560;2023-07-20T04:47:09;100319.97;;;17.33;71.06
34931;BME280;21134;49.646;8.560;2023-07-20T04:49:35;100319.59;;;17.44;70.66
34931;BME280;21134;49.646;8.560;2023-07-20T04:52:02;100313.09;;;17.59;70.62
34931;BME280;21134;49.646;8.560;2023-07-20T04:54:29;100316.16;;;17.70;70.19
34931;BME280;21134;49.646;8.560;2023-07-20T04:56:56;100319.28;;;17.81;69.67
34931;BME280;21134;49.646;8.560;2023-07-20T04:59:23;100313.06;;;17.87;69.32
34931;BME280;21134;49.646;8.560;2023-07-20T05:01:49;100315.41;;;17.93;69.08
34931;BME280;21134;49.646;8.560;2023-07-20T05:04:16;100309.03;;;18.03;68.92
34931;BME280;21134;49.646;8.560;2023-07-20T05:06:42;100311.53;;;18.06;68.78
34931;BME280;21134;49.646;8.560;2023-07-20T05:09:08;100312.06;;;18.16;68.56
34931;BME280;21134;49.646;8.560;2023-07-20T05:11:35;100319.44;;;18.27;68.43
34931;BME280;21134;49.646;8.560;2023-07-20T05:14:03;100313.81;;;18.39;68.00
34931;BME280;21134;49.646;8.560;2023-07-20T05:16:29;100311.66;;;18.50;67.69
34931;BME280;21134;49.646;8.560;2023-07-20T05:18:56;100312.34;;;18.55;67.27
34931;BME280;21134;49.646;8.560;2023-07-20T05:21:23;100309.53;;;18.62;67.63
34931;BME280;21134;49.646;8.560;2023-07-20T05:23:49;100316.06;;;18.72;67.10
34931;BME280;21134;49.646;8.560;2023-07-20T05:26:16;100310.75;;;18.76;67.33
34931;BME280;21134;49.646;8.560;2023-07-20T05:28:42;100311.16;;;18.88;66.97
34931;BME280;21134;49.646;8.560;2023-07-20T05:31:10;100311.66;;;18.97;66.49
34931;BME280;21134;49.646;8.560;2023-07-20T05:33:36;100311.06;;;19.13;65.84
34931;BME280;21134;49.646;8.560;2023-07-20T05:36:03;100313.31;;;19.22;65.44
34931;BME280;21134;49.646;8.560;2023-07-20T05:38:29;100318.13;;;19.31;65.61
34931;BME280;21134;49.646;8.560;2023-07-20T05:40:59;100321.44;;;19.35;65.03
34931;BME280;21134;49.646;8.560;2023-07-20T05:43:26;100322.94;;;19.40;64.38
34931;BME280;21134;49.646;8.560;2023-07-20T05:45:52;100321.66;;;19.50;63.86
34931;BME280;21134;49.646;8.560;2023-07-20T05:48:20;100319.59;;;19.59;63.41
34931;BME280;21134;49.646;8.560;2023-07-20T05:50:46;100321.16;;;19.63;63.95
34931;BME280;21134;49.646;8.560;2023-07-20T05:53:13;100322.63;;;19.70;63.39
34931;BME280;21134;49.646;8.560;2023-07-20T05:55:39;100324.19;;;19.74;63.40
34931;BME280;21134;49.646;8.560;2023-07-20T05:58:06;100333.59;;;19.77;62.75
34931;BME280;21134;49.646;8.560;2023-07-20T06:00:32;100328.41;;;19.77;63.38
34931;BME280;21134;49.646;8.560;2023-07-20T06:02:59;100332.44;;;19.84;63.47
34931;BME280;21134;49.646;8.560;2023-07-20T06:05:26;100326.97;;;19.90;63.27
34931;BME280;21134;49.646;8.560;2023-07-20T06:07:53;100338.63;;;20.02;62.95
34931;BME280;21134;49.646;8.560;2023-07-20T06:10:20;100327.97;;;20.08;62.49
34931;BME280;21134;49.646;8.560;2023-07-20T06:12:46;100327.19;;;20.06;62.72
34931;BME280;21134;49.646;8.560;2023-07-20T06:15:26;100335.94;;;20.03;62.69
34931;BME280;21134;49.646;8.560;2023-07-20T06:17:54;100328.53;;;19.94;63.30
34931;BME280;21134;49.646;8.560;2023-07-20T06:20:21;100329.78;;;19.85;63.31
34931;BME280;21134;49.646;8.560;2023-07-20T06:22:49;100331.47;;;19.86;62.94
34931;BME280;21134;49.646;8.560;2023-07-20T06:25:15;100327.19;;;19.85;63.60
34931;BME280;21134;49.646;8.560;2023-07-20T06:27:42;100328.63;;;19.92;63.84
34931;BME280;21134;49.646;8.560;2023-07-20T06:30:10;100333.22;;;20.06;63.28
34931;BME280;21134;49.646;8.560;2023-07-20T06:32:37;100338.50;;;20.05;63.36
34931;BME280;21134;49.646;8.560;2023-07-20T06:35:04;100334.91;;;20.07;62.70
34931;BME280;21134;49.646;8.560;2023-07-20T06:37:30;100336.47;;;20.11;62.85
34931;BME280;21134;49.646;8.560;2023-07-20T06:39:59;100329.59;;;20.10;62.15
34931;BME280;21134;49.646;8.560;2023-07-20T06:42:25;100327.56;;;20.17;62.36
34931;BME280;21134;49.646;8.560;2023-07-20T06:44:52;100331.97;;;20.15;62.05
34931;BME280;21134;49.646;8.560;2023-07-20T06:47:18;100323.84;;;20.23;62.20
34931;BME280;21134;49.646;8.560;2023-07-20T06:49:45;100334.75;;;20.31;62.42
34931;BME280;21134;49.646;8.560;2023-07-20T06:52:11;100331.31;;;20.30;61.62
34931;BME280;21134;49.646;8.560;2023-07-20T06:54:37;100340.53;;;20.37;60.61
34931;BME280;21134;49.646;8.560;2023-07-20T06:57:06;100349.13;;;20.39;61.17
34931;BME280;21134;49.646;8.560;2023-07-20T06:59:32;100343.78;;;20.42;60.71
34931;BME280;21134;49.646;8.560;2023-07-20T07:01:59;100340.09;;;20.67;60.17
34931;BME280;21134;49.646;8.560;2023-07-20T07:04:25;100342.94;;;20.81;60.21
34931;BME280;21134;49.646;8.560;2023-07-20T07:06:52;100341.28;;;20.98;59.46
34931;BME280;21134;49.646;8.560;2023-07-20T07:09:18;100341.44;;;21.13;58.21
34931;BME280;21134;49.646;8.560;2023-07-20T07:11:46;100349.88;;;21.19;58.07
34931;BME280;21134;49.646;8.560;2023-07-20T07:14:14;100346.50;;;21.35;58.08
34931;BME280;21134;49.646;8.560;2023-07-20T07:16:40;100337.06;;;21.50;57.35
34931;BME280;21134;49.646;8.560;2023-07-20T07:19:07;100339.91;;;21.63;56.98
34931;BME280;21134;49.646;8.560;2023-07-20T07:21:33;100346.16;;;21.61;57.16
34931;BME280;21134;49.646;8.560;2023-07-20T07:24:00;100340.41;;;21.54;56.96
34931;BME280;21134;49.646;8.560;2023-07-20T07:26:26;100342.00;;;21.74;56.67
34931;BME280;21134;49.646;8.560;2023-07-20T07:28:53;100340.72;;;21.82;57.12
34931;BME280;21134;49.646;8.560;2023-07-20T07:31:20;100341.63;;;21.99;56.23
34931;BME280;21134;49.646;8.560;2023-07-20T07:33:48;100343.91;;;22.22;55.84
34931;BME280;21134;49.646;8.560;2023-07-20T07:36:14;100348.34;;;22.38;55.21
34931;BME280;21134;49.646;8.560;2023-07-20T07:38:41;100338.59;;;22.41;55.52
34931;BME280;21134;49.646;8.560;2023-07-20T07:41:07;100342.59;;;22.31;55.58
34931;BME280;21134;49.646;8.560;2023-07-20T07:43:34;100351.72;;;22.22;55.62
34931;BME280;21134;49.646;8.560;2023-07-20T07:46:01;100347.06;;;21.94;56.04
34931;BME280;21134;49.646;8.560;2023-07-20T07:48:30;100349.75;;;21.93;55.88
34931;BME280;21134;49.646;8.560;2023-07-20T07:50:56;100353.72;;;21.65;56.97
34931;BME280;21134;49.646;8.560;2023-07-20T07:53:23;100348.97;;;21.91;56.31
34931;BME280;21134;49.646;8.560;2023-07-20T07:55:51;100350.56;;;21.58;55.98
34931;BME280;21134;49.646;8.560;2023-07-20T07:58:17;100352.16;;;21.44;57.01
34931;BME280;21134;49.646;8.560;2023-07-20T08:00:44;100357.31;;;21.45;57.71
34931;BME280;21134;49.646;8.560;2023-07-20T08:03:10;100352.19;;;21.96;56.19
34931;BME280;21134;49.646;8.560;2023-07-20T08:05:38;100349.00;;;22.41;54.41
34931;BME280;21134;49.646;8.560;2023-07-20T08:08:05;100352.66;;;22.55;54.13
34931;BME280;21134;49.646;8.560;2023-07-20T08:10:31;100353.47;;;22.88;52.84
34931;BME280;21134;49.646;8.560;2023-07-20T08:12:58;100355.25;;;23.04;51.95
34931;BME280;21134;49.646;8.560;2023-07-20T08:15:24;100350.72;;;23.23;51.63
34931;BME280;21134;49.646;8.560;2023-07-20T08:17:50;100340.81;;;23.44;51.82
34931;BME280;21134;49.646;8.560;2023-07-20T08:20:17;100349.00;;;23.84;50.53
34931;BME280;21134;49.646;8.560;2023-07-20T08:22:45;100341.00;;;23.87;51.07
34931;BME280;21134;49.646;8.560;2023-07-20T08:25:12;100346.97;;;23.43;51.49
34931;BME280;21134;49.646;8.560;2023-07-20T08:27:38;100344.56;;;23.08;52.07
34931;BME280;21134;49.646;8.560;2023-07-20T08:30:07;100339.56;;;22.72;53.12
34931;BME280;21134;49.646;8.560;2023-07-20T08:32:34;100338.16;;;22.49;54.08
34931;BME280;21134;49.646;8.560;2023-07-20T08:35:00;100336.91;;;22.40;54.69
34931;BME280;21134;49.646;8.560;2023-07-20T08:37:27;100344.78;;;22.72;53.63
34931;BME280;21134;49.646;8.560;2023-07-20T08:39:54;100341.16;;;22.74;53.90
34931;BME280;21134;49.646;8.560;2023-07-20T08:42:22;100348.34;;;23.18;53.28
34931;BME280;21134;49.646;8.560;2023-07-20T08:44:50;100349.66;;;23.41;51.84
34931;BME280;21134;49.646;8.560;2023-07-20T08:47:20;100344.22;;;23.30;51.34
34931;BME280;21134;49.646;8.560;2023-07-20T08:49:48;100348.13;;;23.69;50.76
34931;BME280;21134;49.646;8.560;2023-07-20T08:52:15;100348.59;;;24.06;49.12
34931;BME280;21134;49.646;8.560;2023-07-20T08:54:41;100339.94;;;23.75;49.23
34931;BME280;21134;49.646;8.560;2023-07-20T08:57:10;100341.19;;;23.68;50.37
34931;BME280;21134;49.646;8.560;2023-07-20T08:59:39;100340.03;;;23.88;49.92
34931;BME280;21134;49.646;8.560;2023-07-20T09:02:07;100339.03;;;23.90;49.19
34931;BME280;21134;49.646;8.560;2023-07-20T09:04:34;100342.59;;;24.18;48.33
34931;BME280;21134;49.646;8.560;2023-07-20T09:07:01;100342.38;;;23.78;48.84
34931;BME280;21134;49.646;8.560;2023-07-20T09:09:28;100343.41;;;23.44;49.94
34931;BME280;21134;49.646;8.560;2023-07-20T09:11:54;100342.31;;;23.48;49.33
34931;BME280;21134;49.646;8.560;2023-07-20T09:14:23;100338.00;;;23.93;48.36
34931;BME280;21134;49.646;8.560;2023-07-20T09:16:52;100336.56;;;24.46;47.19
34931;BME280;21134;49.646;8.560;2023-07-20T09:19:19;100336.47;;;24.76;46.29
34931;BME280;21134;49.646;8.560;2023-07-20T09:21:46;100330.59;;;25.00;45.29
34931;BME280;21134;49.646;8.560;2023-07-20T09:24:13;100331.94;;;25.34;44.40
34931;BME280;21134;49.646;8.560;2023-07-20T09:26:43;100326.75;;;25.05;43.60
34931;BME280;21134;49.646;8.560;2023-07-20T09:29:10;100328.91;;;24.29;45.71
34931;BME280;21134;49.646;8.560;2023-07-20T09:31:38;100333.53;;;23.95;47.49
34931;BME280;21134;49.646;8.560;2023-07-20T09:34:05;100328.47;;;23.78;46.98
34931;BME280;21134;49.646;8.560;2023-07-20T09:36:33;100337.72;;;23.98;46.59
34931;BME280;21134;49.646;8.560;2023-07-20T09:39:01;100324.78;;;24.39;45.61
34931;BME280;21134;49.646;8.560;2023-07-20T09:41:27;100327.97;;;24.58;46.00
34931;BME280;21134;49.646;8.560;2023-07-20T09:43:54;100336.09;;;24.82;45.05
34931;BME280;21134;49.646;8.560;2023-07-20T09:46:20;100329.38;;;24.64;45.92
34931;BME280;21134;49.646;8.560;2023-07-20T09:48:52;100329.44;;;24.20;46.92
34931;BME280;21134;49.646;8.560;2023-07-20T09:51:21;100326.53;;;24.24;46.14
34931;BME280;21134;49.646;8.560;2023-07-20T09:53:48;100321.88;;;24.72;44.95
34931;BME280;21134;49.646;8.560;2023-07-20T09:56:16;100318.47;;;25.53;44.17
34931;BME280;21134;49.646;8.560;2023-07-20T09:58:43;100322.47;;;25.71;43.23
34931;BME280;21134;49.646;8.560;2023-07-20T10:01:12;100312.63;;;25.62;42.98
34931;BME280;21134;49.646;8.560;2023-07-20T10:03:43;100313.63;;;25.47;43.16
34931;BME280;21134;49.646;8.560;2023-07-20T10:06:15;100317.75;;;25.24;42.88
34931;BME280;21134;49.646;8.560;2023-07-20T10:08:46;100316.25;;;25.47;43.33
34931;BME280;21134;49.646;8.560;2023-07-20T10:11:15;100311.22;;;25.57;42.26
34931;BME280;21134;49.646;8.560;2023-07-20T10:13:43;100311.31;;;25.55;42.50
34931;BME280;21134;49.646;8.560;2023-07-20T10:16:11;100300.19;;;25.39;42.05
34931;BME280;21134;49.646;8.560;2023-07-20T10:18:41;100304.16;;;25.84;42.14
34931;BME280;21134;49.646;8.560;2023-07-20T10:21:16;100297.75;;;26.27;41.00
34931;BME280;21134;49.646;8.560;2023-07-20T10:23:44;100303.75;;;25.90;41.64
34931;BME280;21134;49.646;8.560;2023-07-20T10:26:11;100295.38;;;25.45;41.53
34931;BME280;21134;49.646;8.560;2023-07-20T10:28:39;100289.09;;;25.88;42.05
34931;BME280;21134;49.646;8.560;2023-07-20T10:31:07;100287.06;;;26.30;40.92
34931;BME280;21134;49.646;8.560;2023-07-20T10:33:34;100286.00;;;26.82;39.34
34931;BME280;21134;49.646;8.560;2023-07-20T10:36:02;100287.63;;;26.96;39.02
34931;BME280;21134;49.646;8.560;2023-07-20T10:38:42;100280.47;;;26.98;40.06
34931;BME280;21134;49.646;8.560;2023-07-20T10:41:16;100279.19;;;26.79;39.83
34931;BME280;21134;49.646;8.560;2023-07-20T10:43:43;100272.34;;;26.40;40.33
34931;BME280;21134;49.646;8.560;2023-07-20T10:46:11;100277.44;;;26.05;40.75
34931;BME280;21134;49.646;8.560;2023-07-20T10:48:58;100263.50;;;25.39;41.41
34931;BME280;21134;49.646;8.560;2023-07-20T10:51:25;100255.44;;;25.42;42.08
34931;BME280;21134;49.646;8.560;2023-07-20T10:53:54;100255.16;;;25.46;42.50
34931;BME280;21134;49.646;8.560;2023-07-20T10:56:23;100261.34;;;25.71;41.96
34931;BME280;21134;49.646;8.560;2023-07-20T10:58:56;100258.88;;;25.95;41.55
34931;BME280;21134;49.646;8.560;2023-07-20T11:01:27;100260.22;;;26.26;41.28
34931;BME280;21134;49.646;8.560;2023-07-20T11:03:57;100253.13;;;26.52;41.49
34931;BME280;21134;49.646;8.560;2023-07-20T11:06:32;100257.72;;;26.85;40.25
34931;BME280;21134;49.646;8.560;2023-07-20T11:09:07;100256.28;;;26.81;39.79
34931;BME280;21134;49.646;8.560;2023-07-20T11:11:36;100245.75;;;27.05;39.64
34931;BME280;21134;49.646;8.560;2023-07-20T11:14:04;100251.53;;;27.46;38.44
34931;BME280;21134;49.646;8.560;2023-07-20T11:16:33;100245.41;;;27.80;38.13
34931;BME280;21134;49.646;8.560;2023-07-20T11:18:59;100247.69;;;27.96;36.98
34931;BME280;21134;49.646;8.560;2023-07-20T11:21:25;100240.78;;;28.18;37.43
34931;BME280;21134;49.646;8.560;2023-07-20T11:23:52;100244.47;;;28.04;36.50
34931;BME280;21134;49.646;8.560;2023-07-20T11:26:20;100240.28;;;28.13;36.87
34931;BME280;21134;49.646;8.560;2023-07-20T11:28:48;100234.44;;;28.09;36.73
34931;BME280;21134;49.646;8.560;2023-07-20T11:31:15;100241.94;;;28.14;36.40
34931;BME280;21134;49.646;8.560;2023-07-20T11:33:41;100236.16;;;27.75;36.33
34931;BME280;21134;49.646;8.560;2023-07-20T11:36:08;100248.94;;;27.22;36.08
34931;BME280;21134;49.646;8.560;2023-07-20T11:38:35;100244.69;;;26.60;37.36
34931;BME280;21134;49.646;8.560;2023-07-20T11:41:02;100243.78;;;26.48;37.99
34931;BME280;21134;49.646;8.560;2023-07-20T11:43:31;100240.63;;;26.43;38.97
34931;BME280;21134;49.646;8.560;2023-07-20T11:45:57;100250.31;;;26.42;39.20
34931;BME280;21134;49.646;8.560;2023-07-20T11:48:26;100247.38;;;26.34;39.04
34931;BME280;21134;49.646;8.560;2023-07-20T11:50:53;100236.22;;;26.56;39.21
34931;BME280;21134;49.646;8.560;2023-07-20T11:53:24;100240.69;;;26.67;39.09
34931;BME280;21134;49.646;8.560;2023-07-20T11:55:52;100227.19;;;26.48;39.05
34931;BME280;21134;49.646;8.560;2023-07-20T11:58:18;100234.34;;;26.46;39.10
34931;BME280;21134;49.646;8.560;2023-07-20T12:00:47;100242.19;;;26.58;38.61
34931;BME280;21134;49.646;8.560;2023-07-20T12:03:14;100231.56;;;26.23;39.48
34931;BME280;21134;49.646;8.560;2023-07-20T12:05:43;100228.56;;;26.40;38.87
34931;BME280;21134;49.646;8.560;2023-07-20T12:08:11;100232.16;;;26.52;39.50
34931;BME280;21134;49.646;8.560;2023-07-20T12:10:41;100232.09;;;26.65;39.96
34931;BME280;21134;49.646;8.560;2023-07-20T12:13:12;100231.91;;;27.03;37.96
34931;BME280;21134;49.646;8.560;2023-07-20T12:15:38;100219.69;;;27.15;37.52
34931;BME280;21134;49.646;8.560;2023-07-20T12:18:07;100215.44;;;27.25;37.96
34931;BME280;21134;49.646;8.560;2023-07-20T12:20:35;100211.94;;;27.94;37.30
34931;BME280;21134;49.646;8.560;2023-07-20T12:23:04;100211.78;;;28.29;36.44
34931;BME280;21134;49.646;8.560;2023-07-20T12:25:40;100213.59;;;28.28;36.15
34931;BME280;21134;49.646;8.560;2023-07-20T12:28:20;100199.75;;;28.04;36.17
34931;BME280;21134;49.646;8.560;2023-07-20T12:30:47;100201.88;;;28.44;35.44
34931;BME280;21134;49.646;8.560;2023-07-20T12:33:23;100200.91;;;28.77;34.43
34931;BME280;21134;49.646;8.560;2023-07-20T12:35:49;100198.44;;;28.96;35.21
34931;BME280;21134;49.646;8.560;2023-07-20T12:38:16;100197.25;;;29.22;35.15
34931;BME280;21134;49.646;8.560;2023-07-20T12:40:43;100208.59;;;29.33;34.64
34931;BME280;21134;49.646;8.560;2023-07-20T12:43:09;100202.88;;;28.75;35.89
34931;BME280;21134;49.646;8.560;2023-07-20T12:45:36;100201.28;;;28.40;36.46
34931;BME280;21134;49.646;8.560;2023-07-20T12:48:02;100202.41;;;27.93;35.78
34931;BME280;21134;49.646;8.560;2023-07-20T12:50:30;100200.47;;;28.06;35.96
34931;BME280;21134;49.646;8.560;2023-07-20T12:52:57;100195.75;;;28.32;36.07